createdAt,value
2022-08-19T00:00:31.873Z,13.77
2022-08-19T00:05:34.857Z,13.50
2022-08-19T00:10:37.107Z,16.00
2022-08-19T00:15:39.339Z,16.17
2022-08-19T00:20:41.578Z,16.70
2022-08-19T00:25:43.861Z,16.37
2022-08-19T00:30:52.721Z,17.57
2022-08-19T00:35:56.480Z,17.70
2022-08-19T00:40:59.630Z,17.70
2022-08-19T00:46:05.487Z,17.10
2022-08-19T00:51:07.782Z,16.30
2022-08-19T00:56:10.859Z,14.53
2022-08-19T01:01:14.824Z,16.27
2022-08-19T01:06:20.074Z,14.10
2022-08-19T01:11:23.236Z,16.10
2022-08-19T01:16:27.313Z,16.40
2022-08-19T01:21:35.439Z,15.37
2022-08-19T01:26:43.912Z,15.50
2022-08-19T01:31:46.322Z,16.27
2022-08-19T01:36:49.995Z,15.33
2022-08-19T01:41:55.209Z,14.93
2022-08-19T01:46:57.671Z,16.70
2022-08-19T01:52:01.777Z,16.83
2022-08-19T01:57:12.085Z,18.23
2022-08-19T02:02:14.747Z,17.97
2022-08-19T02:07:21.517Z,18.47
2022-08-19T02:12:23.807Z,16.90
2022-08-19T02:17:26.119Z,19.57
2022-08-19T02:22:28.518Z,18.87
2022-08-19T02:27:30.861Z,18.83
2022-08-19T02:32:34.198Z,19.40
2022-08-19T02:38:04.893Z,20.00
2022-08-19T02:43:09.415Z,16.53
2022-08-19T02:48:14.858Z,21.20
2022-08-19T02:53:27.316Z,19.60
2022-08-19T02:58:30.266Z,22.20
2022-08-19T03:03:33.184Z,22.23
2022-08-19T03:08:35.946Z,22.53
2022-08-19T03:13:38.193Z,21.77
2022-08-19T03:18:40.451Z,21.87
2022-08-19T03:23:42.694Z,21.60
2022-08-19T03:28:57.783Z,22.43
2022-08-19T03:34:00.796Z,23.10
2022-08-19T03:39:03.433Z,22.63
2022-08-19T03:44:05.945Z,22.13
2022-08-19T03:49:18.288Z,22.83
2022-08-19T03:54:23.857Z,22.80
2022-08-19T03:59:33.166Z,24.27
2022-08-19T04:04:36.898Z,25.33
2022-08-19T04:09:39.188Z,25.13
2022-08-19T04:14:42.219Z,28.10
2022-08-19T04:19:44.442Z,27.53
2022-08-19T04:24:46.726Z,27.50
2022-08-19T04:29:49.013Z,25.13
2022-08-19T04:35:01.294Z,26.67
2022-08-19T04:40:32.193Z,27.07
2022-08-19T04:45:39.469Z,28.60
2022-08-19T04:50:43.777Z,29.70
2022-08-19T04:55:46.060Z,30.40
2022-08-19T05:00:48.323Z,29.63
2022-08-19T05:05:50.814Z,32.00
2022-08-19T05:10:53.347Z,33.50
2022-08-19T05:15:57.660Z,33.27
2022-08-19T05:21:18.354Z,34.47
2022-08-19T05:26:20.728Z,36.27
2022-08-19T05:31:22.942Z,35.13
2022-08-19T05:36:27.631Z,35.73
2022-08-19T05:41:31.410Z,36.27
2022-08-19T05:46:33.926Z,36.77
2022-08-19T05:51:38.230Z,37.83
2022-08-19T05:56:42.197Z,35.57
2022-08-19T06:01:46.808Z,33.27
2022-08-19T06:06:52.552Z,33.57
2022-08-19T06:12:00.652Z,34.27
2022-08-19T06:17:07.103Z,33.20
2022-08-19T06:22:11.224Z,33.37
2022-08-19T06:27:13.567Z,32.97
2022-08-19T06:32:19.303Z,33.50
2022-08-19T06:37:22.555Z,33.93
2022-08-19T06:42:24.909Z,32.80
2022-08-19T06:47:28.919Z,31.20
2022-08-19T06:52:34.412Z,29.23
2022-08-19T06:57:38.950Z,27.33
2022-08-19T07:02:46.295Z,23.93
2022-08-19T07:07:53.115Z,24.33
2022-08-19T07:12:55.665Z,23.77
2022-08-19T07:17:58.058Z,20.63
2022-08-19T07:23:00.752Z,21.07
2022-08-19T07:28:03.635Z,20.90
2022-08-19T07:33:05.904Z,17.87
2022-08-19T07:38:08.360Z,19.53
2022-08-19T07:43:14.020Z,19.33
2022-08-19T07:48:19.778Z,20.17
2022-08-19T07:53:23.561Z,20.37
2022-08-19T07:58:25.917Z,21.80
2022-08-19T08:03:55.702Z,24.73
2022-08-19T08:09:13.439Z,27.03
2022-08-19T08:14:29.384Z,24.43
2022-08-19T08:19:38.750Z,21.43
2022-08-19T08:24:41.001Z,21.20
2022-08-19T08:29:43.454Z,21.30
2022-08-19T08:34:50.030Z,19.10
2022-08-19T08:39:55.474Z,16.83
2022-08-19T08:45:06.139Z,17.63
2022-08-19T08:50:20.466Z,17.93
2022-08-19T08:55:36.994Z,17.23
2022-08-19T09:00:43.767Z,16.57
2022-08-19T09:06:00.285Z,18.87
2022-08-19T09:11:10.489Z,14.50
2022-08-19T09:16:21.740Z,15.73
2022-08-19T09:21:30.604Z,15.03
2022-08-19T09:26:48.268Z,14.27
2022-08-19T09:31:55.061Z,13.33
2022-08-19T09:36:59.124Z,13.23
2022-08-19T09:42:01.323Z,15.50
2022-08-19T09:47:04.660Z,16.60
2022-08-19T09:52:11.811Z,14.43
2022-08-19T09:57:18.028Z,14.50
2022-08-19T10:02:22.298Z,16.17
2022-08-19T10:07:28.849Z,17.87
2022-08-19T10:12:38.953Z,20.07
2022-08-19T10:17:41.362Z,19.73
2022-08-19T10:22:51.851Z,17.23
2022-08-19T10:27:55.990Z,19.63
2022-08-19T10:32:58.610Z,17.27
2022-08-19T10:38:02.898Z,17.33
2022-08-19T10:43:06.465Z,15.60
2022-08-19T10:48:08.766Z,14.70
2022-08-19T10:53:17.849Z,13.80
2022-08-19T10:58:23.380Z,14.10
2022-08-19T11:03:27.445Z,16.47
2022-08-19T11:08:31.678Z,13.10
2022-08-19T11:13:39.159Z,16.13
2022-08-19T11:18:49.218Z,15.47
2022-08-19T11:23:55.666Z,14.35
2022-08-19T11:28:59.217Z,16.73
2022-08-19T11:34:05.274Z,14.57
2022-08-19T11:39:12.381Z,13.27
2022-08-19T11:44:15.737Z,13.30
2022-08-19T11:49:20.258Z,15.90
2022-08-19T11:54:22.519Z,14.48
2022-08-19T11:59:24.794Z,14.95
2022-08-19T12:04:27.221Z,14.90
2022-08-19T12:09:30.973Z,12.68
2022-08-19T12:14:33.412Z,13.48
2022-08-19T12:19:37.705Z,12.10
2022-08-19T12:24:40.065Z,11.68
2022-08-19T12:29:42.462Z,9.18
2022-08-19T12:34:45.546Z,7.55
2022-08-19T12:39:47.838Z,7.10
2022-08-19T12:44:50.060Z,6.18
2022-08-19T12:49:55.674Z,5.00
2022-08-19T12:54:58.625Z,3.80
2022-08-19T13:00:16.726Z,3.45
2022-08-19T13:05:26.707Z,3.13
2022-08-19T13:10:36.071Z,3.33
2022-08-19T13:15:41.941Z,3.22
2022-08-19T13:20:52.606Z,3.00
2022-08-19T13:26:05.655Z,2.70
2022-08-19T13:31:26.586Z,3.60
2022-08-19T13:36:28.861Z,3.00
2022-08-19T13:41:31.679Z,2.90
2022-08-19T13:46:33.962Z,2.72
2022-08-19T13:51:36.165Z,2.80
2022-08-19T13:56:46.306Z,2.70
2022-08-19T14:01:48.557Z,2.80
2022-08-19T14:06:50.781Z,2.78
2022-08-19T14:11:53.069Z,2.25
2022-08-19T14:16:55.350Z,2.10
2022-08-19T14:21:58.444Z,1.77
2022-08-19T14:27:00.832Z,1.95
2022-08-19T14:32:03.293Z,1.98
2022-08-19T14:37:06.901Z,1.55
2022-08-19T14:42:11.512Z,1.90
2022-08-19T14:47:15.018Z,1.83
2022-08-19T14:52:17.300Z,1.58
2022-08-19T14:57:20.302Z,1.75
2022-08-19T15:02:34.494Z,1.90
2022-08-19T15:07:39.178Z,1.85
2022-08-19T15:12:43.374Z,2.22
2022-08-19T15:17:47.274Z,2.20
2022-08-19T15:22:49.826Z,2.05
2022-08-19T15:27:53.878Z,2.17
2022-08-19T15:32:58.489Z,2.15
2022-08-19T15:38:00.928Z,2.22
2022-08-19T15:43:03.707Z,2.20
2022-08-19T15:48:05.990Z,2.10
2022-08-19T15:53:10.670Z,2.25
2022-08-19T15:58:33.349Z,1.40
2022-08-19T16:03:54.041Z,1.80
2022-08-19T16:09:01.924Z,1.70
2022-08-19T16:14:04.982Z,1.80
2022-08-19T16:19:10.627Z,1.83
2022-08-19T16:24:17.379Z,1.88
2022-08-19T16:29:34.526Z,1.67
2022-08-19T16:34:42.294Z,1.50
2022-08-19T16:39:44.865Z,1.80
2022-08-19T16:44:47.202Z,1.80
2022-08-19T16:49:53.387Z,1.70
2022-08-19T16:54:57.377Z,2.33
2022-08-19T16:59:59.791Z,2.40
2022-08-19T17:05:03.050Z,2.67
2022-08-19T17:10:05.846Z,3.17
2022-08-19T17:15:08.423Z,2.85
2022-08-19T17:20:10.946Z,3.23
2022-08-19T17:25:13.221Z,3.00
2022-08-19T17:30:15.563Z,2.90
2022-08-19T17:35:24.078Z,3.25
2022-08-19T17:40:26.949Z,2.90
2022-08-19T17:45:32.343Z,2.77
2022-08-19T17:50:36.077Z,2.57
2022-08-19T17:55:38.390Z,2.43
2022-08-19T18:00:53.627Z,2.60
2022-08-19T18:05:57.167Z,2.00
2022-08-19T18:11:01.941Z,1.83
2022-08-19T18:16:11.175Z,2.10
2022-08-19T18:21:13.749Z,1.93
2022-08-19T18:26:16.048Z,2.13
2022-08-19T18:31:18.398Z,1.87
2022-08-19T18:36:37.520Z,1.70
2022-08-19T18:42:02.142Z,1.70
2022-08-19T18:47:22.930Z,1.87
2022-08-19T18:52:26.969Z,2.03
2022-08-19T18:57:29.516Z,1.93
2022-08-19T19:02:38.895Z,1.30
2022-08-19T19:07:41.882Z,1.57
2022-08-19T19:12:47.595Z,1.40
2022-08-19T19:17:50.051Z,1.40
2022-08-19T19:22:52.367Z,1.20
2022-08-19T19:27:58.297Z,1.30
2022-08-19T19:33:01.558Z,1.50
2022-08-19T19:38:03.854Z,1.73
2022-08-19T19:43:06.212Z,1.40
2022-08-19T19:48:09.859Z,1.70
2022-08-19T19:53:14.963Z,1.70
2022-08-19T19:58:18.489Z,2.10
2022-08-19T20:03:26.155Z,2.07
2022-08-19T20:08:47.272Z,2.57
2022-08-19T20:13:49.569Z,2.93
2022-08-19T20:18:52.665Z,2.10
2022-08-19T20:24:08.677Z,2.83
2022-08-19T20:29:38.439Z,2.93
2022-08-19T20:34:35.399Z,2.50
2022-08-19T20:39:38.201Z,2.50
2022-08-19T20:44:40.570Z,2.50
2022-08-19T20:49:42.861Z,2.90
2022-08-19T20:54:45.083Z,2.43
2022-08-19T20:59:47.398Z,2.43
2022-08-19T21:04:49.887Z,2.87
2022-08-19T21:09:53.218Z,2.63
2022-08-19T21:14:55.457Z,2.90
2022-08-19T21:19:57.691Z,2.77
2022-08-19T21:24:59.951Z,2.67
2022-08-19T21:30:03.434Z,2.40
2022-08-19T21:35:06.161Z,3.00
2022-08-19T21:40:09.169Z,2.63
2022-08-19T21:45:14.561Z,2.93
2022-08-19T21:50:17.329Z,2.57
2022-08-19T21:55:20.639Z,2.60
2022-08-19T22:00:23.857Z,2.60
2022-08-19T22:05:27.990Z,2.33
2022-08-19T22:10:33.338Z,2.57
2022-08-19T22:15:35.658Z,2.33
2022-08-19T22:20:37.912Z,2.20
2022-08-19T22:25:44.256Z,3.03
2022-08-19T22:30:47.126Z,2.87
2022-08-19T22:35:52.367Z,3.47
2022-08-19T22:40:56.413Z,2.37
2022-08-19T22:46:00.183Z,3.07
2022-08-19T22:51:20.966Z,3.53
2022-08-19T22:56:23.216Z,2.70
2022-08-19T23:01:27.655Z,2.30
2022-08-19T23:06:33.301Z,2.97
2022-08-19T23:11:42.116Z,3.00
2022-08-19T23:16:50.487Z,2.77
2022-08-19T23:21:53.495Z,3.00
2022-08-19T23:27:14.285Z,2.87
2022-08-19T23:32:18.534Z,2.90
2022-08-19T23:37:20.761Z,3.27
2022-08-19T23:42:25.467Z,2.47
2022-08-19T23:47:27.773Z,2.33
2022-08-19T23:52:42.958Z,2.07
2022-08-19T23:57:45.394Z,2.73
